sensor_id;sensor_type;location;lat;lon;timestamp;temperature;humidity
30148;DHT22;16960;49.404;8.248;2022-09-16T00:02:04;24.00;53.30
30148;DHT22;16960;49.404;8.248;2022-09-16T00:04:31;24.00;53.00
30148;DHT22;16960;49.404;8.248;2022-09-16T00:06:58;24.00;52.90
30148;DHT22;16960;49.404;8.248;2022-09-16T00:09:25;24.00;53.00
30148;DHT22;16960;49.404;8.248;2022-09-16T00:11:53;24.00;52.90
30148;DHT22;16960;49.404;8.248;2022-09-16T00:14:20;24.00;52.90
30148;DHT22;16960;49.404;8.248;2022-09-16T00:16:47;24.00;52.90
30148;DHT22;16960;49.404;8.248;2022-09-16T00:19:14;24.00;52.90
30148;DHT22;16960;49.404;8.248;2022-09-16T00:21:41;24.00;52.90
30148;DHT22;16960;49.404;8.248;2022-09-16T00:24:10;24.00;52.90
30148;DHT22;16960;49.404;8.248;2022-09-16T00:26:38;24.00;52.90
30148;DHT22;16960;49.404;8.248;2022-09-16T00:29:07;24.00;52.80
30148;DHT22;16960;49.404;8.248;2022-09-16T00:31:34;24.00;52.80
30148;DHT22;16960;49.404;8.248;2022-09-16T00:34:01;23.90;52.80
30148;DHT22;16960;49.404;8.248;2022-09-16T00:36:28;23.90;52.90
30148;DHT22;16960;49.404;8.248;2022-09-16T00:38:55;23.90;52.80
30148;DHT22;16960;49.404;8.248;2022-09-16T00:41:24;23.90;52.90
30148;DHT22;16960;49.404;8.248;2022-09-16T00:43:54;23.90;52.90
30148;DHT22;16960;49.404;8.248;2022-09-16T00:46:29;23.90;53.60
30148;DHT22;16960;49.404;8.248;2022-09-16T00:49:02;23.90;52.80
30148;DHT22;16960;49.404;8.248;2022-09-16T00:51:30;23.90;52.90
30148;DHT22;16960;49.404;8.248;2022-09-16T00:54:01;23.90;52.80
30148;DHT22;16960;49.404;8.248;2022-09-16T00:56:32;23.90;52.80
30148;DHT22;16960;49.404;8.248;2022-09-16T00:59:03;23.90;52.90
30148;DHT22;16960;49.404;8.248;2022-09-16T01:01:33;23.90;52.90
30148;DHT22;16960;49.404;8.248;2022-09-16T01:04:03;23.90;52.80
30148;DHT22;16960;49.404;8.248;2022-09-16T01:06:34;23.90;52.80
30148;DHT22;16960;49.404;8.248;2022-09-16T01:09:03;23.90;52.90
30148;DHT22;16960;49.404;8.248;2022-09-16T01:11:30;23.90;52.90
30148;DHT22;16960;49.404;8.248;2022-09-16T01:13:57;23.90;52.90
30148;DHT22;16960;49.404;8.248;2022-09-16T01:16:51;23.90;52.90
30148;DHT22;16960;49.404;8.248;2022-09-16T01:19:34;23.90;52.80
30148;DHT22;16960;49.404;8.248;2022-09-16T01:22:14;23.80;52.80
30148;DHT22;16960;49.404;8.248;2022-09-16T01:24:51;23.90;52.90
30148;DHT22;16960;49.404;8.248;2022-09-16T01:27:51;23.90;52.90
30148;DHT22;16960;49.404;8.248;2022-09-16T01:33:25;23.90;52.90
30148;DHT22;16960;49.404;8.248;2022-09-16T01:36:02;23.80;52.80
30148;DHT22;16960;49.404;8.248;2022-09-16T01:38:48;23.80;52.80
30148;DHT22;16960;49.404;8.248;2022-09-16T01:41:24;23.80;52.80
30148;DHT22;16960;49.404;8.248;2022-09-16T01:43:57;23.80;52.80
30148;DHT22;16960;49.404;8.248;2022-09-16T01:46:32;23.80;52.80
30148;DHT22;16960;49.404;8.248;2022-09-16T01:49:09;23.80;52.80
30148;DHT22;16960;49.404;8.248;2022-09-16T01:51:44;23.80;52.80
30148;DHT22;16960;49.404;8.248;2022-09-16T01:54:19;23.80;52.80
30148;DHT22;16960;49.404;8.248;2022-09-16T01:56:52;23.80;53.50
30148;DHT22;16960;49.404;8.248;2022-09-16T01:59:25;23.80;52.80
30148;DHT22;16960;49.404;8.248;2022-09-16T02:01:58;23.80;52.80
30148;DHT22;16960;49.404;8.248;2022-09-16T02:04:30;23.80;52.80
30148;DHT22;16960;49.404;8.248;2022-09-16T02:07:01;23.80;52.80
30148;DHT22;16960;49.404;8.248;2022-09-16T02:09:33;23.80;52.80
30148;DHT22;16960;49.404;8.248;2022-09-16T02:12:05;23.80;53.40
30148;DHT22;16960;49.404;8.248;2022-09-16T02:14:35;23.80;52.70
30148;DHT22;16960;49.404;8.248;2022-09-16T02:17:07;23.80;52.70
30148;DHT22;16960;49.404;8.248;2022-09-16T02:19:38;23.70;52.70
30148;DHT22;16960;49.404;8.248;2022-09-16T02:22:09;23.70;52.60
30148;DHT22;16960;49.404;8.248;2022-09-16T02:24:37;23.80;52.60
30148;DHT22;16960;49.404;8.248;2022-09-16T02:27:10;23.70;52.60
30148;DHT22;16960;49.404;8.248;2022-09-16T02:29:43;23.70;52.60
30148;DHT22;16960;49.404;8.248;2022-09-16T02:32:14;23.70;52.70
30148;DHT22;16960;49.404;8.248;2022-09-16T02:34:43;23.70;52.60
30148;DHT22;16960;49.404;8.248;2022-09-16T02:37:15;23.70;52.70
30148;DHT22;16960;49.404;8.248;2022-09-16T02:39:44;23.70;52.70
30148;DHT22;16960;49.404;8.248;2022-09-16T02:42:13;23.70;52.70
30148;DHT22;16960;49.404;8.248;2022-09-16T02:44:41;23.70;52.70
30148;DHT22;16960;49.404;8.248;2022-09-16T02:47:14;23.70;52.70
30148;DHT22;16960;49.404;8.248;2022-09-16T02:49:48;23.70;52.70
30148;DHT22;16960;49.404;8.248;2022-09-16T02:52:23;23.70;52.70
30148;DHT22;16960;49.404;8.248;2022-09-16T02:55:01;23.70;52.60
30148;DHT22;16960;49.404;8.248;2022-09-16T02:57:30;23.70;52.60
30148;DHT22;16960;49.404;8.248;2022-09-16T02:59:58;23.70;52.70
30148;DHT22;16960;49.404;8.248;2022-09-16T03:02:26;23.70;52.70
30148;DHT22;16960;49.404;8.248;2022-09-16T03:04:53;23.70;52.60
30148;DHT22;16960;49.404;8.248;2022-09-16T03:07:20;23.70;52.70
30148;DHT22;16960;49.404;8.248;2022-09-16T03:09:49;23.70;52.70
30148;DHT22;16960;49.404;8.248;2022-09-16T03:12:34;23.60;52.60
30148;DHT22;16960;49.404;8.248;2022-09-16T03:21:12;23.70;52.70
30148;DHT22;16960;49.404;8.248;2022-09-16T03:23:46;23.70;52.70
30148;DHT22;16960;49.404;8.248;2022-09-16T03:26:20;23.70;52.60
30148;DHT22;16960;49.404;8.248;2022-09-16T03:28:58;23.60;52.50
30148;DHT22;16960;49.404;8.248;2022-09-16T03:31:29;23.60;52.50
30148;DHT22;16960;49.404;8.248;2022-09-16T03:34:03;23.60;52.50
30148;DHT22;16960;49.404;8.248;2022-09-16T03:36:33;23.60;52.50
30148;DHT22;16960;49.404;8.248;2022-09-16T03:39:02;23.60;52.80
30148;DHT22;16960;49.404;8.248;2022-09-16T03:41:31;23.60;52.50
30148;DHT22;16960;49.404;8.248;2022-09-16T03:43:59;23.60;52.50
30148;DHT22;16960;49.404;8.248;2022-09-16T03:46:26;23.60;52.50
30148;DHT22;16960;49.404;8.248;2022-09-16T03:48:54;23.60;52.50
30148;DHT22;16960;49.404;8.248;2022-09-16T03:51:22;23.60;52.50
30148;DHT22;16960;49.404;8.248;2022-09-16T03:53:49;23.60;52.50
30148;DHT22;16960;49.404;8.248;2022-09-16T03:56:16;23.60;52.40
30148;DHT22;16960;49.404;8.248;2022-09-16T03:58:45;23.60;52.40
30148;DHT22;16960;49.404;8.248;2022-09-16T04:01:12;23.60;52.40
30148;DHT22;16960;49.404;8.248;2022-09-16T04:03:39;23.60;52.40
30148;DHT22;16960;49.404;8.248;2022-09-16T04:06:06;23.60;52.40
30148;DHT22;16960;49.404;8.248;2022-09-16T04:08:35;23.60;52.40
30148;DHT22;16960;49.404;8.248;2022-09-16T04:11:05;23.60;52.40
30148;DHT22;16960;49.404;8.248;2022-09-16T04:13:33;23.60;52.40
30148;DHT22;16960;49.404;8.248;2022-09-16T04:16:01;23.60;52.50
30148;DHT22;16960;49.404;8.248;2022-09-16T04:18:29;23.60;52.50
30148;DHT22;16960;49.404;8.248;2022-09-16T04:20:56;23.60;52.40
30148;DHT22;16960;49.404;8.248;2022-09-16T04:23:23;23.60;52.50
30148;DHT22;16960;49.404;8.248;2022-09-16T04:25:54;23.60;52.60
30148;DHT22;16960;49.404;8.248;2022-09-16T04:28:21;23.60;52.60
30148;DHT22;16960;49.404;8.248;2022-09-16T04:30:48;23.60;52.60
30148;DHT22;16960;49.404;8.248;2022-09-16T04:33:17;23.50;52.60
30148;DHT22;16960;49.404;8.248;2022-09-16T04:35:44;23.50;52.60
30148;DHT22;16960;49.404;8.248;2022-09-16T04:38:12;23.50;52.50
30148;DHT22;16960;49.404;8.248;2022-09-16T04:40:39;23.50;52.60
30148;DHT22;16960;49.404;8.248;2022-09-16T04:43:07;23.50;52.60
30148;DHT22;16960;49.404;8.248;2022-09-16T04:45:34;23.50;52.50
30148;DHT22;16960;49.404;8.248;2022-09-16T04:48:01;23.60;52.50
30148;DHT22;16960;49.404;8.248;2022-09-16T04:50:28;23.60;52.50
30148;DHT22;16960;49.404;8.248;2022-09-16T04:52:55;23.60;52.50
30148;DHT22;16960;49.404;8.248;2022-09-16T04:55:22;23.50;52.50
30148;DHT22;16960;49.404;8.248;2022-09-16T04:57:49;23.50;52.40
30148;DHT22;16960;49.404;8.248;2022-09-16T05:00:18;23.50;52.50
30148;DHT22;16960;49.404;8.248;2022-09-16T05:02:45;23.50;52.50
30148;DHT22;16960;49.404;8.248;2022-09-16T05:05:14;23.50;52.50
30148;DHT22;16960;49.404;8.248;2022-09-16T05:07:42;23.50;52.50
30148;DHT22;16960;49.404;8.248;2022-09-16T05:10:09;23.50;52.50
30148;DHT22;16960;49.404;8.248;2022-09-16T05:12:36;23.50;52.50
30148;DHT22;16960;49.404;8.248;2022-09-16T05:15:03;23.50;52.40
30148;DHT22;16960;49.404;8.248;2022-09-16T05:17:31;23.50;52.40
30148;DHT22;16960;49.404;8.248;2022-09-16T05:19:58;23.50;52.50
30148;DHT22;16960;49.404;8.248;2022-09-16T05:22:25;23.50;52.60
30148;DHT22;16960;49.404;8.248;2022-09-16T05:24:52;23.50;52.60
30148;DHT22;16960;49.404;8.248;2022-09-16T05:27:19;23.50;52.70
30148;DHT22;16960;49.404;8.248;2022-09-16T05:29:46;23.50;52.70
30148;DHT22;16960;49.404;8.248;2022-09-16T05:32:13;23.50;52.70
30148;DHT22;16960;49.404;8.248;2022-09-16T05:34:41;23.40;52.60
30148;DHT22;16960;49.404;8.248;2022-09-16T05:37:08;23.40;52.60
30148;DHT22;16960;49.404;8.248;2022-09-16T05:39:35;23.50;52.60
30148;DHT22;16960;49.404;8.248;2022-09-16T05:42:02;23.40;52.50
30148;DHT22;16960;49.404;8.248;2022-09-16T05:44:29;23.40;52.40
30148;DHT22;16960;49.404;8.248;2022-09-16T05:46:56;23.40;52.40
30148;DHT22;16960;49.404;8.248;2022-09-16T05:49:23;23.40;52.30
30148;DHT22;16960;49.404;8.248;2022-09-16T05:51:52;23.40;52.30
30148;DHT22;16960;49.404;8.248;2022-09-16T05:54:20;23.40;52.30
30148;DHT22;16960;49.404;8.248;2022-09-16T05:56:50;23.40;52.30
30148;DHT22;16960;49.404;8.248;2022-09-16T05:59:17;23.40;52.20
30148;DHT22;16960;49.404;8.248;2022-09-16T06:01:44;23.40;52.20
30148;DHT22;16960;49.404;8.248;2022-09-16T06:04:13;23.40;52.10
30148;DHT22;16960;49.404;8.248;2022-09-16T06:06:41;23.40;52.30
30148;DHT22;16960;49.404;8.248;2022-09-16T06:09:11;23.40;52.30
30148;DHT22;16960;49.404;8.248;2022-09-16T06:11:40;23.30;52.40
30148;DHT22;16960;49.404;8.248;2022-09-16T06:14:08;23.40;52.40
30148;DHT22;16960;49.404;8.248;2022-09-16T06:16:35;23.40;52.50
30148;DHT22;16960;49.404;8.248;2022-09-16T06:19:05;23.40;52.30
30148;DHT22;16960;49.404;8.248;2022-09-16T06:21:35;23.40;52.20
30148;DHT22;16960;49.404;8.248;2022-09-16T06:24:02;23.40;52.20
30148;DHT22;16960;49.404;8.248;2022-09-16T06:26:35;23.40;52.10
30148;DHT22;16960;49.404;8.248;2022-09-16T06:29:03;23.50;52.10
30148;DHT22;16960;49.404;8.248;2022-09-16T06:31:31;23.50;51.90
30148;DHT22;16960;49.404;8.248;2022-09-16T06:33:59;23.50;51.80
30148;DHT22;16960;49.404;8.248;2022-09-16T06:36:27;23.50;51.70
30148;DHT22;16960;49.404;8.248;2022-09-16T06:38:54;23.50;51.60
30148;DHT22;16960;49.404;8.248;2022-09-16T06:41:21;23.60;51.60
30148;DHT22;16960;49.404;8.248;2022-09-16T06:43:50;23.60;51.50
30148;DHT22;16960;49.404;8.248;2022-09-16T06:46:22;23.60;51.40
30148;DHT22;16960;49.404;8.248;2022-09-16T06:48:50;23.60;51.40
30148;DHT22;16960;49.404;8.248;2022-09-16T06:51:20;23.60;51.30
30148;DHT22;16960;49.404;8.248;2022-09-16T06:53:48;23.60;51.20
30148;DHT22;16960;49.404;8.248;2022-09-16T06:56:17;23.70;51.20
30148;DHT22;16960;49.404;8.248;2022-09-16T06:58:46;23.70;51.10
30148;DHT22;16960;49.404;8.248;2022-09-16T07:01:16;23.70;51.00
30148;DHT22;16960;49.404;8.248;2022-09-16T07:03:44;23.70;50.90
30148;DHT22;16960;49.404;8.248;2022-09-16T07:06:13;23.80;50.90
30148;DHT22;16960;49.404;8.248;2022-09-16T07:08:41;23.80;51.40
30148;DHT22;16960;49.404;8.248;2022-09-16T07:11:10;23.80;50.70
30148;DHT22;16960;49.404;8.248;2022-09-16T07:13:38;23.80;50.50
30148;DHT22;16960;49.404;8.248;2022-09-16T07:16:06;23.80;50.70
30148;DHT22;16960;49.404;8.248;2022-09-16T07:18:35;23.90;50.60
30148;DHT22;16960;49.404;8.248;2022-09-16T07:21:03;23.90;50.30
30148;DHT22;16960;49.404;8.248;2022-09-16T07:23:31;23.90;49.90
30148;DHT22;16960;49.404;8.248;2022-09-16T07:26:02;23.90;49.70
30148;DHT22;16960;49.404;8.248;2022-09-16T07:28:30;23.90;49.60
30148;DHT22;16960;49.404;8.248;2022-09-16T07:31:00;23.90;49.70
30148;DHT22;16960;49.404;8.248;2022-09-16T07:33:28;23.90;49.80
30148;DHT22;16960;49.404;8.248;2022-09-16T07:35:58;23.90;49.70
30148;DHT22;16960;49.404;8.248;2022-09-16T07:38:26;23.90;49.60
30148;DHT22;16960;49.404;8.248;2022-09-16T07:40:53;23.90;49.20
30148;DHT22;16960;49.404;8.248;2022-09-16T07:43:20;23.90;49.20
30148;DHT22;16960;49.404;8.248;2022-09-16T07:45:54;23.90;49.20
30148;DHT22;16960;49.404;8.248;2022-09-16T07:48:21;23.90;48.80
30148;DHT22;16960;49.404;8.248;2022-09-16T07:50:54;24.00;48.70
30148;DHT22;16960;49.404;8.248;2022-09-16T07:53:23;23.90;48.80
30148;DHT22;16960;49.404;8.248;2022-09-16T07:55:52;24.00;48.80
30148;DHT22;16960;49.404;8.248;2022-09-16T07:58:19;24.00;48.90
30148;DHT22;16960;49.404;8.248;2022-09-16T08:00:47;24.00;48.80
30148;DHT22;16960;49.404;8.248;2022-09-16T08:03:15;24.00;48.70
30148;DHT22;16960;49.404;8.248;2022-09-16T08:05:42;24.00;48.80
30148;DHT22;16960;49.404;8.248;2022-09-16T08:08:09;24.00;49.40
30148;DHT22;16960;49.404;8.248;2022-09-16T08:10:38;24.00;48.60
30148;DHT22;16960;49.404;8.248;2022-09-16T08:13:05;24.00;48.20
30148;DHT22;16960;49.404;8.248;2022-09-16T08:15:32;24.00;48.30
30148;DHT22;16960;49.404;8.248;2022-09-16T08:17:59;24.10;48.20
30148;DHT22;16960;49.404;8.248;2022-09-16T08:20:26;24.10;48.20
30148;DHT22;16960;49.404;8.248;2022-09-16T08:22:53;24.10;48.30
30148;DHT22;16960;49.404;8.248;2022-09-16T08:25:20;24.10;48.20
30148;DHT22;16960;49.404;8.248;2022-09-16T08:27:48;24.10;48.30
30148;DHT22;16960;49.404;8.248;2022-09-16T08:30:15;24.10;48.10
30148;DHT22;16960;49.404;8.248;2022-09-16T08:32:42;24.10;47.80
30148;DHT22;16960;49.404;8.248;2022-09-16T08:35:09;24.10;47.80
30148;DHT22;16960;49.404;8.248;2022-09-16T08:37:36;24.10;47.80
30148;DHT22;16960;49.404;8.248;2022-09-16T08:40:03;24.10;47.50
30148;DHT22;16960;49.404;8.248;2022-09-16T08:42:51;24.10;47.40
30148;DHT22;16960;49.404;8.248;2022-09-16T08:45:25;24.10;47.30
30148;DHT22;16960;49.404;8.248;2022-09-16T08:48:11;24.10;47.40
30148;DHT22;16960;49.404;8.248;2022-09-16T08:50:43;24.10;47.50
30148;DHT22;16960;49.404;8.248;2022-09-16T08:53:14;24.10;46.80
30148;DHT22;16960;49.404;8.248;2022-09-16T08:55:45;24.10;47.00
30148;DHT22;16960;49.404;8.248;2022-09-16T08:58:16;24.10;46.80
30148;DHT22;16960;49.404;8.248;2022-09-16T09:00:48;24.10;47.00
30148;DHT22;16960;49.404;8.248;2022-09-16T09:03:29;24.10;47.00
30148;DHT22;16960;49.404;8.248;2022-09-16T09:05:59;24.10;46.70
30148;DHT22;16960;49.404;8.248;2022-09-16T09:08:42;24.10;46.40
30148;DHT22;16960;49.404;8.248;2022-09-16T09:11:15;24.10;46.50
30148;DHT22;16960;49.404;8.248;2022-09-16T09:14:07;24.10;46.10
30148;DHT22;16960;49.404;8.248;2022-09-16T09:16:45;24.20;45.80
30148;DHT22;16960;49.404;8.248;2022-09-16T09:19:34;24.20;45.70
30148;DHT22;16960;49.404;8.248;2022-09-16T09:22:13;24.20;45.50
30148;DHT22;16960;49.404;8.248;2022-09-16T09:25:07;24.20;45.40
30148;DHT22;16960;49.404;8.248;2022-09-16T09:27:44;24.20;45.10
30148;DHT22;16960;49.404;8.248;2022-09-16T09:30:20;24.20;45.60
30148;DHT22;16960;49.404;8.248;2022-09-16T09:33:02;24.20;45.40
30148;DHT22;16960;49.404;8.248;2022-09-16T09:35:40;24.20;45.40
30148;DHT22;16960;49.404;8.248;2022-09-16T09:41:15;24.20;45.90
30148;DHT22;16960;49.404;8.248;2022-09-16T09:43:46;24.20;45.80
30148;DHT22;16960;49.404;8.248;2022-09-16T09:46:18;24.20;45.90
30148;DHT22;16960;49.404;8.248;2022-09-16T09:48:53;24.20;45.90
30148;DHT22;16960;49.404;8.248;2022-09-16T09:51:25;24.30;46.20
30148;DHT22;16960;49.404;8.248;2022-09-16T09:53:58;24.20;46.30
30148;DHT22;16960;49.404;8.248;2022-09-16T09:56:29;24.30;46.40
30148;DHT22;16960;49.404;8.248;2022-09-16T09:59:16;24.30;46.40
30148;DHT22;16960;49.404;8.248;2022-09-16T10:01:52;24.30;46.20
30148;DHT22;16960;49.404;8.248;2022-09-16T10:04:19;24.30;46.40
30148;DHT22;16960;49.404;8.248;2022-09-16T10:06:47;24.30;45.90
30148;DHT22;16960;49.404;8.248;2022-09-16T10:09:16;24.30;46.30
30148;DHT22;16960;49.404;8.248;2022-09-16T10:11:49;24.30;46.00
30148;DHT22;16960;49.404;8.248;2022-09-16T10:14:26;24.30;45.80
30148;DHT22;16960;49.404;8.248;2022-09-16T10:16:59;24.40;46.20
30148;DHT22;16960;49.404;8.248;2022-09-16T10:19:28;24.40;46.50
30148;DHT22;16960;49.404;8.248;2022-09-16T10:22:09;24.40;46.30
30148;DHT22;16960;49.404;8.248;2022-09-16T10:24:38;24.40;46.10
30148;DHT22;16960;49.404;8.248;2022-09-16T10:27:19;24.40;46.30
30148;DHT22;16960;49.404;8.248;2022-09-16T10:29:46;24.50;46.40
30148;DHT22;16960;49.404;8.248;2022-09-16T10:32:17;24.50;46.10
30148;DHT22;16960;49.404;8.248;2022-09-16T10:34:45;24.50;46.20
30148;DHT22;16960;49.404;8.248;2022-09-16T10:37:15;24.50;46.20
30148;DHT22;16960;49.404;8.248;2022-09-16T10:39:49;24.50;46.10
30148;DHT22;16960;49.404;8.248;2022-09-16T10:42:19;24.50;46.10
30148;DHT22;16960;49.404;8.248;2022-09-16T10:44:47;24.50;46.20
30148;DHT22;16960;49.404;8.248;2022-09-16T10:47:20;24.60;46.20
30148;DHT22;16960;49.404;8.248;2022-09-16T10:49:49;24.50;46.30
30148;DHT22;16960;49.404;8.248;2022-09-16T10:52:17;24.60;46.10
30148;DHT22;16960;49.404;8.248;2022-09-16T10:54:46;24.60;46.10
30148;DHT22;16960;49.404;8.248;2022-09-16T10:57:26;24.60;46.10
30148;DHT22;16960;49.404;8.248;2022-09-16T11:00:03;24.60;45.90
30148;DHT22;16960;49.404;8.248;2022-09-16T11:05:34;24.60;46.20
30148;DHT22;16960;49.404;8.248;2022-09-16T11:08:10;24.60;46.10
30148;DHT22;16960;49.404;8.248;2022-09-16T11:10:42;24.60;46.20
30148;DHT22;16960;49.404;8.248;2022-09-16T11:13:24;24.70;46.40
30148;DHT22;16960;49.404;8.248;2022-09-16T11:16:08;24.70;46.40
30148;DHT22;16960;49.404;8.248;2022-09-16T11:18:52;24.70;45.90
30148;DHT22;16960;49.404;8.248;2022-09-16T11:21:43;24.70;46.00
30148;DHT22;16960;49.404;8.248;2022-09-16T11:24:25;24.70;46.00
30148;DHT22;16960;49.404;8.248;2022-09-16T11:27:05;24.70;46.10
30148;DHT22;16960;49.404;8.248;2022-09-16T11:29:48;24.80;46.00
30148;DHT22;16960;49.404;8.248;2022-09-16T11:32:23;24.80;45.90
30148;DHT22;16960;49.404;8.248;2022-09-16T11:37:47;24.90;45.20
30148;DHT22;16960;49.404;8.248;2022-09-16T11:40:26;24.90;45.40
30148;DHT22;16960;49.404;8.248;2022-09-16T11:43:00;25.00;45.00
30148;DHT22;16960;49.404;8.248;2022-09-16T11:45:42;25.00;45.30
30148;DHT22;16960;49.404;8.248;2022-09-16T11:48:26;25.00;45.20
30148;DHT22;16960;49.404;8.248;2022-09-16T11:51:02;25.10;45.50
30148;DHT22;16960;49.404;8.248;2022-09-16T11:53:43;25.10;45.30
30148;DHT22;16960;49.404;8.248;2022-09-16T11:56:16;25.10;45.40
30148;DHT22;16960;49.404;8.248;2022-09-16T11:58:47;25.10;45.10
30148;DHT22;16960;49.404;8.248;2022-09-16T12:01:27;25.10;45.40
30148;DHT22;16960;49.404;8.248;2022-09-16T12:03:59;25.00;45.10
30148;DHT22;16960;49.404;8.248;2022-09-16T12:06:35;25.00;45.40
30148;DHT22;16960;49.404;8.248;2022-09-16T12:09:08;25.00;45.40
30148;DHT22;16960;49.404;8.248;2022-09-16T12:11:39;25.10;45.40
30148;DHT22;16960;49.404;8.248;2022-09-16T12:14:12;25.00;45.50
30148;DHT22;16960;49.404;8.248;2022-09-16T12:16:45;25.00;45.50
30148;DHT22;16960;49.404;8.248;2022-09-16T12:19:17;25.10;45.50
30148;DHT22;16960;49.404;8.248;2022-09-16T12:21:51;25.10;45.60
30148;DHT22;16960;49.404;8.248;2022-09-16T12:24:23;25.10;45.60
30148;DHT22;16960;49.404;8.248;2022-09-16T12:26:55;25.10;45.60
30148;DHT22;16960;49.404;8.248;2022-09-16T12:29:28;25.10;45.70
30148;DHT22;16960;49.404;8.248;2022-09-16T12:32:02;25.10;45.80
30148;DHT22;16960;49.404;8.248;2022-09-16T12:34:33;25.10;45.60
30148;DHT22;16960;49.404;8.248;2022-09-16T12:37:14;25.20;45.60
30148;DHT22;16960;49.404;8.248;2022-09-16T12:39:43;25.20;44.90
30148;DHT22;16960;49.404;8.248;2022-09-16T12:42:36;25.20;44.70
30148;DHT22;16960;49.404;8.248;2022-09-16T12:45:20;25.30;44.80
30148;DHT22;16960;49.404;8.248;2022-09-16T12:48:03;25.30;45.10
30148;DHT22;16960;49.404;8.248;2022-09-16T12:50:54;25.30;45.10
30148;DHT22;16960;49.404;8.248;2022-09-16T12:56:47;25.40;44.80
30148;DHT22;16960;49.404;8.248;2022-09-16T12:59:26;25.40;44.60
30148;DHT22;16960;49.404;8.248;2022-09-16T13:01:59;25.40;44.90
30148;DHT22;16960;49.404;8.248;2022-09-16T13:04:31;25.40;44.60
30148;DHT22;16960;49.404;8.248;2022-09-16T13:07:00;25.40;44.60
30148;DHT22;16960;49.404;8.248;2022-09-16T13:09:29;25.40;44.20
30148;DHT22;16960;49.404;8.248;2022-09-16T13:12:01;25.40;44.30
30148;DHT22;16960;49.404;8.248;2022-09-16T13:14:31;25.40;44.20
30148;DHT22;16960;49.404;8.248;2022-09-16T13:16:59;25.40;44.10
30148;DHT22;16960;49.404;8.248;2022-09-16T13:19:34;25.40;43.80
30148;DHT22;16960;49.404;8.248;2022-09-16T13:22:16;25.40;44.00
30148;DHT22;16960;49.404;8.248;2022-09-16T13:24:48;25.40;43.90
30148;DHT22;16960;49.404;8.248;2022-09-16T13:27:29;25.30;43.80
30148;DHT22;16960;49.404;8.248;2022-09-16T13:30:27;25.30;43.90
30148;DHT22;16960;49.404;8.248;2022-09-16T13:35:42;25.30;43.80
30148;DHT22;16960;49.404;8.248;2022-09-16T13:38:34;25.30;43.90
30148;DHT22;16960;49.404;8.248;2022-09-16T13:41:04;25.30;43.90
30148;DHT22;16960;49.404;8.248;2022-09-16T13:43:34;25.30;43.80
30148;DHT22;16960;49.404;8.248;2022-09-16T13:46:10;25.30;43.90
30148;DHT22;16960;49.404;8.248;2022-09-16T13:48:43;25.20;44.20
30148;DHT22;16960;49.404;8.248;2022-09-16T13:51:16;25.20;44.10
30148;DHT22;16960;49.404;8.248;2022-09-16T13:53:45;25.20;44.30
30148;DHT22;16960;49.404;8.248;2022-09-16T13:56:43;25.20;44.30
30148;DHT22;16960;49.404;8.248;2022-09-16T13:59:32;25.20;44.30
30148;DHT22;16960;49.404;8.248;2022-09-16T14:02:13;25.20;44.40
30148;DHT22;16960;49.404;8.248;2022-09-16T14:04:55;25.20;44.40
30148;DHT22;16960;49.404;8.248;2022-09-16T14:07:34;25.20;44.50
30148;DHT22;16960;49.404;8.248;2022-09-16T14:10:10;25.20;44.40
30148;DHT22;16960;49.404;8.248;2022-09-16T14:12:46;25.10;45.20
30148;DHT22;16960;49.404;8.248;2022-09-16T14:15:15;25.10;44.40
30148;DHT22;16960;49.404;8.248;2022-09-16T14:17:44;25.10;44.50
30148;DHT22;16960;49.404;8.248;2022-09-16T14:20:15;25.10;44.50
30148;DHT22;16960;49.404;8.248;2022-09-16T14:22:43;25.10;44.50
30148;DHT22;16960;49.404;8.248;2022-09-16T14:25:28;25.10;44.60
30148;DHT22;16960;49.404;8.248;2022-09-16T14:28:14;25.10;44.80
30148;DHT22;16960;49.404;8.248;2022-09-16T14:30:53;25.00;44.70
30148;DHT22;16960;49.404;8.248;2022-09-16T14:33:26;25.10;44.80
30148;DHT22;16960;49.404;8.248;2022-09-16T14:35:54;25.00;44.80
30148;DHT22;16960;49.404;8.248;2022-09-16T14:38:30;25.00;44.80
30148;DHT22;16960;49.404;8.248;2022-09-16T14:40:57;25.00;44.90
30148;DHT22;16960;49.404;8.248;2022-09-16T14:43:24;25.00;44.90
30148;DHT22;16960;49.404;8.248;2022-09-16T14:45:55;24.90;45.00
30148;DHT22;16960;49.404;8.248;2022-09-16T14:48:29;24.90;45.00
30148;DHT22;16960;49.404;8.248;2022-09-16T14:50:56;24.90;45.10
30148;DHT22;16960;49.404;8.248;2022-09-16T14:53:29;24.90;45.10
30148;DHT22;16960;49.404;8.248;2022-09-16T14:55:56;24.90;45.20
30148;DHT22;16960;49.404;8.248;2022-09-16T14:58:25;24.90;45.20
30148;DHT22;16960;49.404;8.248;2022-09-16T15:00:57;24.90;45.20
30148;DHT22;16960;49.404;8.248;2022-09-16T15:03:30;24.80;45.10
30148;DHT22;16960;49.404;8.248;2022-09-16T15:06:04;24.80;45.90
30148;DHT22;16960;49.404;8.248;2022-09-16T15:08:34;24.80;45.20
30148;DHT22;16960;49.404;8.248;2022-09-16T15:11:09;24.80;45.20
30148;DHT22;16960;49.404;8.248;2022-09-16T15:13:37;24.80;45.30
30148;DHT22;16960;49.404;8.248;2022-09-16T15:16:10;24.80;45.20
30148;DHT22;16960;49.404;8.248;2022-09-16T15:18:41;24.80;45.20
30148;DHT22;16960;49.404;8.248;2022-09-16T15:21:11;24.80;45.60
30148;DHT22;16960;49.404;8.248;2022-09-16T15:23:46;24.80;44.60
30148;DHT22;16960;49.404;8.248;2022-09-16T15:26:15;24.70;44.90
30148;DHT22;16960;49.404;8.248;2022-09-16T15:28:52;24.70;44.40
30148;DHT22;16960;49.404;8.248;2022-09-16T15:31:28;24.70;44.50
30148;DHT22;16960;49.404;8.248;2022-09-16T15:33:57;24.70;44.60
30148;DHT22;16960;49.404;8.248;2022-09-16T15:36:34;24.70;44.70
30148;DHT22;16960;49.404;8.248;2022-09-16T15:39:02;24.70;44.90
30148;DHT22;16960;49.404;8.248;2022-09-16T15:41:29;24.70;44.90
30148;DHT22;16960;49.404;8.248;2022-09-16T15:43:57;24.70;44.70
30148;DHT22;16960;49.404;8.248;2022-09-16T15:46:27;24.70;44.70
30148;DHT22;16960;49.404;8.248;2022-09-16T15:48:57;24.70;44.80
30148;DHT22;16960;49.404;8.248;2022-09-16T15:51:29;24.70;44.50
30148;DHT22;16960;49.404;8.248;2022-09-16T15:54:04;24.70;44.60
30148;DHT22;16960;49.404;8.248;2022-09-16T15:56:35;24.70;44.40
30148;DHT22;16960;49.404;8.248;2022-09-16T15:59:05;24.60;44.30
30148;DHT22;16960;49.404;8.248;2022-09-16T16:01:49;24.60;44.30
30148;DHT22;16960;49.404;8.248;2022-09-16T16:04:22;24.60;44.30
30148;DHT22;16960;49.404;8.248;2022-09-16T16:06:52;24.60;44.40
30148;DHT22;16960;49.404;8.248;2022-09-16T16:09:34;24.70;44.30
30148;DHT22;16960;49.404;8.248;2022-09-16T16:12:05;24.70;44.20
30148;DHT22;16960;49.404;8.248;2022-09-16T16:14:33;24.70;44.20
30148;DHT22;16960;49.404;8.248;2022-09-16T16:17:04;24.70;44.30
30148;DHT22;16960;49.404;8.248;2022-09-16T16:19:31;24.70;44.10
30148;DHT22;16960;49.404;8.248;2022-09-16T16:21:58;24.60;44.10
30148;DHT22;16960;49.404;8.248;2022-09-16T16:24:26;24.60;44.10